Ashwaubenon, Wisconsin
Current Conditions -  °F | °C
As of 6:53 AM on Tuesday 21 Oct 2014 (Local Time) from KGRB Reporting Station
Overcast Overcast  
Wind Chill:   Ceiling: 2600
Heat Index:   Visibility: 10mi
Dew Point:   Wind: 10mph
Humidity: 80%   Direction: 360°N
Pressure: 30.16"   Gusts: NA
Location:  44.48°N, 88.07°W
Report Text: KGRB 211153Z 36009KT 10SM OVC026 06/03 A3016 RMK AO2 SLP220 70001 T00610028 10072 20061 52025
Loading
Personal Weather Stations






























Interactive Weather Map
Tropical Storm Tracking
New forecast layout! Learn more

10-Day Weather Forecast

Advertisements
Track Severe Weather on mobile